Time;durP1;ratioP1;P1;durP2;ratioP2;P2;SDS_P1;SDS_P2;PMS_P1;PMS_P2;Temp;Humidity;BMP_temperature;BMP_pressure;BME280_temperature;BME280_humidity;BME280_pressure;Samples;Min_cycle;Max_cycle;Signal;HPM_P1;HPM_P2
2021/01/24 00:02:18;;;;;;;5.50;3.75;;;4.30;99.10;;;;;;5038821;28;20209;-83
2021/01/24 00:04:44;;;;;;;6.40;3.03;;;4.20;99.10;;;;;;5039563;28;20182;-83
2021/01/24 00:07:10;;;;;;;5.18;3.17;;;4.20;99.10;;;;;;5042038;28;20178;-83
2021/01/24 00:09:36;;;;;;;4.50;2.87;;;4.20;99.10;;;;;;5043218;28;20169;-82
2021/01/24 00:12:02;;;;;;;6.22;3.08;;;4.20;99.10;;;;;;5042858;28;20421;-83
2021/01/24 00:14:28;;;;;;;5.60;2.92;;;4.10;99.10;;;;;;5042550;28;20711;-83
2021/01/24 00:16:54;;;;;;;5.80;3.70;;;4.10;99.10;;;;;;5043018;28;20170;-83
2021/01/24 00:19:20;;;;;;;4.40;2.88;;;4.10;99.10;;;;;;5042899;28;20565;-83
2021/01/24 00:21:46;;;;;;;6.00;2.57;;;4.10;99.10;;;;;;5042857;28;20204;-83
2021/01/24 00:24:11;;;;;;;8.43;2.83;;;4.10;99.10;;;;;;5042018;28;20170;-83
2021/01/24 00:26:37;;;;;;;5.43;3.57;;;4.10;99.10;;;;;;5042073;28;20832;-82
2021/01/24 00:29:03;;;;;;;5.47;2.80;;;4.20;99.10;;;;;;5042389;28;20456;-83
2021/01/24 00:31:29;;;;;;;4.23;2.50;;;4.20;99.10;;;;;;5042957;28;20416;-83
2021/01/24 00:33:54;;;;;;;6.63;2.53;;;4.20;99.10;;;;;;5042052;28;20174;-83
2021/01/24 00:36:20;;;;;;;3.50;2.00;;;4.20;99.10;;;;;;5042209;28;20417;-83
2021/01/24 00:38:47;;;;;;;3.13;2.28;;;4.20;99.10;;;;;;5042215;28;20197;-83
2021/01/24 00:41:13;;;;;;;4.45;2.25;;;4.20;99.10;;;;;;5042733;28;20247;-83
2021/01/24 00:43:39;;;;;;;4.60;2.10;;;4.20;99.10;;;;;;5042489;28;20170;-83
2021/01/24 00:46:05;;;;;;;4.47;2.35;;;4.20;99.10;;;;;;5042513;28;20245;-83
2021/01/24 00:48:35;;;;;;;4.00;1.93;;;4.20;99.10;;;;;;5041917;28;20272;-83
2021/01/24 00:51:01;;;;;;;2.35;1.60;;;4.20;99.10;;;;;;5041769;28;20185;-84
2021/01/24 00:53:27;;;;;;;3.22;2.17;;;4.20;99.10;;;;;;5042847;28;20182;-83
2021/01/24 00:55:54;;;;;;;3.78;2.15;;;4.20;99.10;;;;;;5042250;28;20205;-83
2021/01/24 00:58:20;;;;;;;2.67;1.73;;;4.10;99.10;;;;;;5041772;28;20198;-83
2021/01/24 01:00:46;;;;;;;6.63;2.28;;;4.10;99.10;;;;;;5041562;28;20201;-83
2021/01/24 01:03:12;;;;;;;4.20;2.30;;;4.10;99.10;;;;;;5041280;28;20172;-83
2021/01/24 01:05:39;;;;;;;2.93;1.80;;;4.20;99.10;;;;;;5041406;28;20177;-83
2021/01/24 01:08:05;;;;;;;3.10;1.95;;;4.20;99.10;;;;;;5041076;28;20432;-83
2021/01/24 01:10:32;;;;;;;3.90;2.22;;;4.20;99.10;;;;;;5041237;28;20170;-83
2021/01/24 01:12:58;;;;;;;5.55;2.30;;;4.20;99.10;;;;;;5041275;28;20173;-83
2021/01/24 01:15:24;;;;;;;3.72;1.85;;;4.20;99.10;;;;;;5041489;28;20228;-83
2021/01/24 01:17:50;;;;;;;2.63;1.87;;;4.20;99.10;;;;;;5040670;28;20194;-83
2021/01/24 01:20:17;;;;;;;3.75;2.67;;;4.20;99.10;;;;;;5041548;28;20412;-83
2021/01/24 01:22:43;;;;;;;3.75;2.15;;;4.20;99.10;;;;;;5041373;28;20216;-82
2021/01/24 01:25:09;;;;;;;3.20;2.43;;;4.20;99.10;;;;;;5041415;28;20260;-83
2021/01/24 01:27:35;;;;;;;3.70;3.03;;;4.20;99.10;;;;;;5041281;28;20440;-83
2021/01/24 01:30:01;;;;;;;2.72;1.90;;;4.20;99.00;;;;;;5041585;28;20237;-83
2021/01/24 01:32:27;;;;;;;2.70;1.80;;;4.20;98.90;;;;;;5040539;28;20178;-83
2021/01/24 01:34:53;;;;;;;3.27;2.10;;;4.20;98.70;;;;;;5041057;28;20213;-83
2021/01/24 01:37:18;;;;;;;3.10;2.20;;;4.20;98.80;;;;;;5041226;28;20602;-83
2021/01/24 01:39:45;;;;;;;5.70;2.10;;;4.20;98.80;;;;;;5041168;28;20604;-83
2021/01/24 01:42:17;;;;;;;3.13;1.75;;;4.20;98.80;;;;;;5040104;28;20437;-83
2021/01/24 01:44:43;;;;;;;2.20;1.80;;;4.20;98.50;;;;;;5040639;28;20178;-84
2021/01/24 01:47:10;;;;;;;2.60;1.75;;;4.20;98.50;;;;;;5040709;28;20185;-83
2021/01/24 01:49:36;;;;;;;4.55;2.58;;;4.20;98.40;;;;;;5041032;28;20181;-83
2021/01/24 01:52:02;;;;;;;3.78;2.38;;;4.10;98.60;;;;;;5041053;28;20608;-83
2021/01/24 01:54:28;;;;;;;4.93;2.70;;;4.10;98.60;;;;;;5041480;28;20189;-83
2021/01/24 01:56:54;;;;;;;3.28;2.13;;;4.00;99.00;;;;;;5040047;28;20185;-83
2021/01/24 01:59:21;;;;;;;4.07;2.60;;;4.00;98.60;;;;;;5040061;28;20193;-83
2021/01/24 02:02:05;;;;;;;4.18;2.50;;;4.00;99.00;;;;;;5040018;28;20197;-83
2021/01/24 02:04:39;;;;;;;1.95;1.85;;;3.90;99.10;;;;;;5040591;28;20170;-83
2021/01/24 02:07:13;;;;;;;3.70;2.30;;;3.90;99.10;;;;;;5040024;28;20171;-83
2021/01/24 02:10:13;;;;;;;6.93;2.17;;;3.90;99.10;;;;;;5040863;28;20194;-84
2021/01/24 02:12:53;;;;;;;3.13;1.75;;;3.90;99.10;;;;;;5035717;28;20580;-83
2021/01/24 02:15:21;;;;;;;2.47;1.83;;;4.00;99.10;;;;;;5039432;28;20538;-83
2021/01/24 02:17:55;;;;;;;2.90;1.55;;;3.90;99.10;;;;;;5040090;28;20197;-83
2021/01/24 02:20:56;;;;;;;2.08;1.33;;;4.00;99.10;;;;;;5040161;28;20170;-83
2021/01/24 02:23:25;;;;;;;1.40;1.35;;;4.00;99.10;;;;;;5040481;28;20177;-82
2021/01/24 02:26:14;;;;;;;2.15;1.45;;;4.00;99.10;;;;;;5040231;28;20181;-83
2021/01/24 02:28:54;;;;;;;1.05;0.93;;;4.00;98.60;;;;;;5022597;28;20232;-83
2021/01/24 02:31:23;;;;;;;1.55;1.00;;;4.00;98.20;;;;;;5040778;28;20649;-83
2021/01/24 02:33:50;;;;;;;3.47;1.00;;;3.90;96.20;;;;;;5040120;28;20188;-83
2021/01/24 02:36:18;;;;;;;0.98;0.85;;;3.90;96.80;;;;;;5040549;28;20224;-83
2021/01/24 02:38:45;;;;;;;0.98;0.70;;;3.90;95.80;;;;;;5040103;28;20198;-83
2021/01/24 02:41:11;;;;;;;1.08;0.77;;;3.90;95.70;;;;;;5039226;28;20237;-83
2021/01/24 02:43:41;;;;;;;0.70;0.50;;;3.90;95.10;;;;;;5040533;28;20174;-83
2021/01/24 02:46:07;;;;;;;0.50;0.50;;;3.90;94.90;;;;;;5040242;28;20642;-83
2021/01/24 02:48:33;;;;;;;0.50;0.50;;;3.90;95.00;;;;;;5040589;28;20212;-83
2021/01/24 02:51:00;;;;;;;0.50;0.50;;;3.90;94.90;;;;;;5041048;28;20174;-83
2021/01/24 02:53:26;;;;;;;1.10;0.77;;;3.90;94.40;;;;;;5040857;28;20432;-83
2021/01/24 02:55:53;;;;;;;1.40;0.60;;;3.80;95.20;;;;;;5040311;28;20285;-82
2021/01/24 02:58:19;;;;;;;0.80;0.60;;;3.80;95.30;;;;;;5042446;28;20193;-82
2021/01/24 03:00:45;;;;;;;0.50;0.50;;;3.80;95.00;;;;;;5040496;28;20228;-82
2021/01/24 03:03:11;;;;;;;1.37;0.50;;;3.70;94.80;;;;;;5040529;28;20166;-83
2021/01/24 03:05:36;;;;;;;0.90;0.70;;;3.70;95.00;;;;;;5039809;28;20421;-82
2021/01/24 03:08:02;;;;;;;3.47;1.07;;;3.70;94.50;;;;;;5040517;28;20198;-82
2021/01/24 03:10:29;;;;;;;1.95;1.33;;;3.70;94.60;;;;;;5040514;28;20190;-82
2021/01/24 03:13:10;;;;;;;0.80;0.60;;;3.80;94.90;;;;;;5040332;28;20178;-82
2021/01/24 03:15:36;;;;;;;1.27;0.77;;;3.80;94.40;;;;;;5040349;28;20170;-82
2021/01/24 03:18:04;;;;;;;0.98;0.80;;;3.80;93.90;;;;;;5040673;28;20205;-82
2021/01/24 03:20:34;;;;;;;1.40;0.80;;;3.70;92.60;;;;;;5040722;28;20256;-82
2021/01/24 03:23:06;;;;;;;0.93;0.85;;;3.70;91.60;;;;;;5039553;28;20184;-82
2021/01/24 03:25:35;;;;;;;1.17;0.82;;;3.60;92.20;;;;;;5040276;28;20176;-82
2021/01/24 03:28:02;;;;;;;1.95;1.15;;;3.60;91.80;;;;;;5039390;28;20194;-82
2021/01/24 03:30:28;;;;;;;1.63;1.10;;;3.60;91.90;;;;;;5039629;28;20689;-82
2021/01/24 03:32:54;;;;;;;1.80;1.17;;;3.50;93.10;;;;;;5039113;28;20217;-82
2021/01/24 03:35:19;;;;;;;2.38;1.63;;;3.50;94.30;;;;;;5040115;28;20174;-83
2021/01/24 03:37:45;;;;;;;1.70;1.40;;;3.40;94.50;;;;;;5040475;28;20193;-82
2021/01/24 03:40:11;;;;;;;2.60;1.63;;;3.40;95.30;;;;;;5041729;28;20932;-82
2021/01/24 03:42:37;;;;;;;3.03;1.80;;;3.40;95.00;;;;;;5043755;28;20252;-82
2021/01/24 03:45:04;;;;;;;3.60;1.83;;;3.30;93.80;;;;;;5043749;28;20174;-82
2021/01/24 03:47:30;;;;;;;2.08;1.40;;;3.30;94.40;;;;;;5043930;28;20181;-83
2021/01/24 03:49:56;;;;;;;2.40;1.83;;;3.40;93.70;;;;;;5043888;28;20190;-82
2021/01/24 03:52:21;;;;;;;2.63;1.40;;;3.30;92.60;;;;;;5044089;28;20170;-82
2021/01/24 03:54:48;;;;;;;2.43;1.80;;;3.20;92.80;;;;;;5044872;28;20433;-82
2021/01/24 03:57:13;;;;;;;4.50;1.70;;;3.20;92.90;;;;;;5043725;28;20661;-83
2021/01/24 03:59:39;;;;;;;2.90;1.63;;;3.10;91.30;;;;;;5042237;22;20256;-79
2021/01/24 04:02:05;;;;;;;2.07;1.93;;;3.10;91.10;;;;;;5019523;28;20525;-79
2021/01/24 04:04:31;;;;;;;2.13;1.97;;;3.10;90.70;;;;;;5020027;28;20243;-79
2021/01/24 04:06:56;;;;;;;2.10;1.60;;;3.10;90.70;;;;;;5020382;28;20420;-79
2021/01/24 04:09:22;;;;;;;8.93;2.57;;;3.10;91.30;;;;;;5019885;28;20446;-78
2021/01/24 04:11:48;;;;;;;5.00;2.03;;;3.00;88.30;;;;;;5019506;28;20428;-78
2021/01/24 04:14:14;;;;;;;4.35;2.25;;;3.00;88.50;;;;;;5019231;28;20185;-78
2021/01/24 04:16:40;;;;;;;4.05;2.30;;;3.00;90.10;;;;;;5018898;28;20169;-78
2021/01/24 04:19:06;;;;;;;3.60;1.63;;;3.10;90.10;;;;;;5018798;28;20746;-79
2021/01/24 04:21:32;;;;;;;4.70;2.27;;;3.10;89.20;;;;;;5018425;28;20339;-79
2021/01/24 04:23:57;;;;;;;4.00;2.37;;;3.10;89.20;;;;;;5018801;28;20419;-78
2021/01/24 04:26:23;;;;;;;4.30;2.20;;;3.10;90.10;;;;;;5019879;28;20448;-78
2021/01/24 04:28:49;;;;;;;4.27;2.10;;;3.10;90.20;;;;;;5020114;28;20205;-79
2021/01/24 04:31:16;;;;;;;3.70;2.40;;;3.10;91.70;;;;;;5019679;28;20576;-78
2021/01/24 04:33:41;;;;;;;4.10;1.90;;;3.10;92.00;;;;;;5037155;28;20170;-79
2021/01/24 04:36:07;;;;;;;3.90;2.17;;;3.10;93.20;;;;;;5019704;28;20232;-79
2021/01/24 04:38:33;;;;;;;2.27;1.47;;;3.00;91.30;;;;;;5019011;28;20194;-78
2021/01/24 04:41:00;;;;;;;5.30;2.23;;;2.90;90.40;;;;;;5019585;28;21081;-78
2021/01/24 04:43:26;;;;;;;4.00;2.40;;;2.80;90.70;;;;;;5019429;28;20412;-78
2021/01/24 04:45:55;;;;;;;7.20;2.20;;;2.80;90.10;;;;;;5019296;28;20196;-79
2021/01/24 04:48:22;;;;;;;4.43;2.00;;;2.70;91.00;;;;;;5019076;28;20616;-79
2021/01/24 04:50:48;;;;;;;5.85;2.22;;;2.70;90.20;;;;;;5018882;28;20166;-78
2021/01/24 04:53:15;;;;;;;5.90;1.83;;;2.80;90.20;;;;;;5017882;28;20517;-78
2021/01/24 04:55:41;;;;;;;3.58;2.05;;;2.70;89.50;;;;;;5018535;28;20833;-78
2021/01/24 04:58:08;;;;;;;8.43;2.28;;;2.70;89.40;;;;;;5018536;28;20196;-78
2021/01/24 05:00:34;;;;;;;3.50;2.53;;;2.70;89.60;;;;;;5018528;28;20591;-78
2021/01/24 05:03:00;;;;;;;2.75;1.73;;;2.60;85.90;;;;;;5017341;28;20204;-78
2021/01/24 05:05:26;;;;;;;9.10;1.65;;;2.60;85.90;;;;;;5035313;28;20174;-78
2021/01/24 05:07:56;;;;;;;7.37;2.40;;;2.60;85.30;;;;;;5017485;28;20255;-78
2021/01/24 05:10:27;;;;;;;4.85;2.63;;;2.60;84.90;;;;;;5017646;28;20387;-79
2021/01/24 05:12:55;;;;;;;4.85;2.08;;;2.60;84.40;;;;;;5017966;28;20174;-78
2021/01/24 05:15:21;;;;;;;6.15;2.42;;;2.50;80.80;;;;;;5017283;28;20185;-79
2021/01/24 05:17:54;;;;;;;4.70;1.85;;;2.50;80.20;;;;;;5017394;28;20194;-78
2021/01/24 05:20:24;;;;;;;3.22;1.83;;;2.50;82.60;;;;;;5017585;28;20620;-78
2021/01/24 05:22:50;;;;;;;2.92;1.95;;;2.50;81.70;;;;;;5017456;28;20213;-78
2021/01/24 05:25:20;;;;;;;3.45;1.70;;;2.60;80.90;;;;;;5017373;28;20189;-78
2021/01/24 05:27:47;;;;;;;9.70;2.05;;;2.60;81.70;;;;;;5017239;28;20198;-78
2021/01/24 05:30:19;;;;;;;6.85;2.25;;;2.50;81.30;;;;;;5017962;28;20264;-78
2021/01/24 05:32:45;;;;;;;3.72;1.90;;;2.50;83.70;;;;;;5017106;28;20189;-78
2021/01/24 05:35:12;;;;;;;3.47;1.80;;;2.50;83.50;;;;;;5017199;28;20174;-78
2021/01/24 05:37:39;;;;;;;2.92;1.80;;;2.50;83.80;;;;;;5019265;28;20194;-79
2021/01/24 05:40:07;;;;;;;7.60;2.75;;;2.40;84.90;;;;;;5019676;28;20265;-78
2021/01/24 05:42:37;;;;;;;5.50;2.53;;;2.30;86.20;;;;;;5019380;28;20621;-77
2021/01/24 05:45:14;;;;;;;8.40;2.35;;;2.30;86.70;;;;;;5016291;28;20437;-77
2021/01/24 05:47:42;;;;;;;2.35;1.73;;;2.30;87.10;;;;;;5017039;28;20201;-77
2021/01/24 05:50:10;;;;;;;5.05;2.90;;;2.40;88.00;;;;;;5017084;28;20192;-77
2021/01/24 05:52:40;;;;;;;9.23;3.10;;;2.40;88.00;;;;;;5016832;28;20174;-78
2021/01/24 05:55:08;;;;;;;4.82;2.92;;;2.50;87.00;;;;;;5017979;28;20173;-79
2021/01/24 05:57:36;;;;;;;3.03;2.40;;;2.40;87.00;;;;;;5017973;28;20212;-76
2021/01/24 06:00:05;;;;;;;8.07;2.70;;;2.40;87.40;;;;;;5015818;28;20559;-77
2021/01/24 06:02:31;;;;;;;6.70;3.05;;;2.40;86.70;;;;;;5015581;28;20282;-76
2021/01/24 06:04:57;;;;;;;5.63;2.30;;;2.40;87.10;;;;;;5015965;28;20174;-77
2021/01/24 06:07:23;;;;;;;2.45;2.13;;;2.40;87.80;;;;;;5015678;28;20194;-76
2021/01/24 06:09:49;;;;;;;4.93;2.60;;;2.50;87.30;;;;;;5015644;28;20201;-76
2021/01/24 06:12:16;;;;;;;8.25;2.15;;;2.50;86.30;;;;;;5015631;28;20201;-76
2021/01/24 06:14:47;;;;;;;7.53;2.25;;;2.50;86.30;;;;;;5015671;28;20205;-77
2021/01/24 06:17:38;;;;;;;7.28;2.75;;;2.50;86.40;;;;;;5017124;28;20189;-78
2021/01/24 06:20:06;;;;;;;5.00;3.08;;;2.50;86.90;;;;;;5018294;28;20169;-78
2021/01/24 06:22:45;;;;;;;5.40;2.80;;;2.50;86.40;;;;;;5018536;28;20281;-78
2021/01/24 06:25:36;;;;;;;6.22;2.95;;;2.50;87.10;;;;;;5018264;28;20162;-78
2021/01/24 06:28:09;;;;;;;4.75;2.80;;;2.40;85.90;;;;;;5017896;28;20193;-78
2021/01/24 06:30:36;;;;;;;11.82;3.42;;;2.30;84.90;;;;;;5015803;28;20331;-77
2021/01/24 06:33:22;;;;;;;4.55;2.42;;;2.20;86.90;;;;;;5017066;28;20174;-77
2021/01/24 06:35:51;;;;;;;5.35;2.63;;;2.30;87.80;;;;;;5015548;28;20170;-77
2021/01/24 06:38:39;;;;;;;8.35;2.67;;;2.30;87.10;;;;;;5017118;28;20216;-77
2021/01/24 06:41:14;;;;;;;6.35;3.55;;;2.30;87.60;;;;;;5015270;28;20550;-77
2021/01/24 06:43:45;;;;;;;6.85;3.10;;;2.40;87.60;;;;;;5015387;28;20165;-77
2021/01/24 06:46:26;;;;;;;8.07;3.30;;;2.40;88.00;;;;;;5015148;28;20177;-77
2021/01/24 06:48:53;;;;;;;10.40;4.93;;;2.40;88.70;;;;;;5015015;28;20196;-77
2021/01/24 06:51:42;;;;;;;5.10;3.15;;;2.30;88.30;;;;;;5014983;28;20201;-77
2021/01/24 06:54:27;;;;;;;7.95;3.55;;;2.30;88.40;;;;;;5014858;28;20169;-77
2021/01/24 06:56:53;;;;;;;5.50;2.95;;;2.30;88.50;;;;;;5014845;28;20165;-77
2021/01/24 06:59:37;;;;;;;5.37;2.77;;;2.20;89.10;;;;;;5014634;28;20217;-77
2021/01/24 07:02:35;;;;;;;8.00;3.53;;;2.20;87.60;;;;;;5014583;28;20514;-77
2021/01/24 07:05:08;;;;;;;5.47;2.45;;;2.10;89.40;;;;;;5014948;28;20622;-77
2021/01/24 07:07:36;;;;;;;5.95;3.15;;;2.10;89.40;;;;;;5014857;28;20661;-77
2021/01/24 07:10:04;;;;;;;6.95;3.15;;;2.10;89.90;;;;;;5014670;28;20224;-77
2021/01/24 07:12:43;;;;;;;5.75;3.42;;;2.10;90.10;;;;;;5014523;28;20627;-77
2021/01/24 07:15:20;;;;;;;10.38;3.22;;;2.00;89.50;;;;;;5014372;28;20184;-77
2021/01/24 07:18:00;;;;;;;6.53;2.80;;;2.00;90.10;;;;;;5014545;28;20555;-77
2021/01/24 07:20:26;;;;;;;5.25;3.33;;;2.00;89.80;;;;;;5014586;28;20162;-77
2021/01/24 07:22:54;;;;;;;5.53;3.22;;;2.00;88.30;;;;;;5014362;28;20193;-77
2021/01/24 07:25:20;;;;;;;19.65;3.65;;;2.00;89.20;;;;;;5014444;28;20236;-77
2021/01/24 07:27:52;;;;;;;6.40;3.05;;;2.10;89.50;;;;;;5014412;28;20200;-77
2021/01/24 07:30:24;;;;;;;7.95;3.30;;;2.10;89.20;;;;;;5014694;28;20158;-77
2021/01/24 07:32:50;;;;;;;8.15;3.13;;;2.10;90.10;;;;;;5014532;28;20166;-77
2021/01/24 07:35:16;;;;;;;12.83;2.73;;;2.10;90.10;;;;;;5014561;28;20201;-77
2021/01/24 07:37:42;;;;;;;6.90;4.13;;;2.00;89.80;;;;;;5014300;28;20554;-77
2021/01/24 07:40:08;;;;;;;4.85;2.65;;;2.10;90.20;;;;;;5014324;28;20388;-77
2021/01/24 07:42:34;;;;;;;5.72;3.28;;;2.10;90.10;;;;;;5014212;28;20198;-75
2021/01/24 07:45:00;;;;;;;7.70;3.10;;;2.20;90.30;;;;;;5014196;28;20174;-77
2021/01/24 07:47:26;;;;;;;8.30;2.90;;;2.20;89.50;;;;;;5014350;28;20272;-77
2021/01/24 07:49:52;;;;;;;9.70;3.93;;;2.20;90.10;;;;;;5014432;28;20198;-77
2021/01/24 07:52:19;;;;;;;7.40;2.67;;;2.20;89.80;;;;;;5014164;28;20413;-77
2021/01/24 07:54:46;;;;;;;12.88;3.25;;;2.20;89.60;;;;;;5014318;28;20174;-77
2021/01/24 07:57:12;;;;;;;5.90;2.88;;;2.20;89.40;;;;;;5014597;28;20178;-77
2021/01/24 07:59:38;;;;;;;10.25;3.50;;;2.20;89.40;;;;;;5014211;28;20208;-77
2021/01/24 08:02:04;;;;;;;6.27;2.70;;;2.20;89.50;;;;;;5014046;28;20194;-77
2021/01/24 08:04:32;;;;;;;5.93;2.70;;;2.20;89.60;;;;;;5014340;28;20198;-77
2021/01/24 08:06:58;;;;;;;3.15;2.22;;;2.30;87.80;;;;;;5014325;28;20174;-77
2021/01/24 08:09:25;;;;;;;6.60;2.92;;;2.30;88.30;;;;;;5014217;28;20174;-77
2021/01/24 08:11:51;;;;;;;5.32;3.08;;;2.40;88.00;;;;;;5014292;28;20174;-77
2021/01/24 08:14:17;;;;;;;5.77;2.70;;;2.40;87.80;;;;;;5014037;28;20208;-77
2021/01/24 08:16:46;;;;;;;8.32;2.80;;;2.50;87.00;;;;;;5014333;28;20178;-77
2021/01/24 08:19:20;;;;;;;4.80;2.70;;;2.50;86.60;;;;;;5014339;28;20563;-77
2021/01/24 08:21:47;;;;;;;6.20;2.50;;;2.50;85.90;;;;;;5014077;28;20213;-77
2021/01/24 08:24:14;;;;;;;9.90;3.58;;;2.60;86.70;;;;;;5014239;28;20619;-77
2021/01/24 08:26:41;;;;;;;4.07;2.25;;;2.50;85.30;;;;;;5014770;28;20176;-77
2021/01/24 08:29:07;;;;;;;6.10;2.03;;;2.50;85.10;;;;;;5018008;28;20740;-77
2021/01/24 08:31:34;;;;;;;6.20;2.17;;;2.60;84.20;;;;;;5017790;28;20178;-77
2021/01/24 08:34:00;;;;;;;5.82;3.60;;;2.60;84.60;;;;;;5017839;28;20185;-77
2021/01/24 08:36:28;;;;;;;6.50;2.05;;;2.70;84.90;;;;;;5017847;28;20173;-77
2021/01/24 08:38:58;;;;;;;7.65;2.65;;;2.70;83.80;;;;;;5017909;28;20681;-77
2021/01/24 08:41:34;;;;;;;6.85;3.58;;;2.70;84.10;;;;;;5017280;28;20186;-77
2021/01/24 08:44:15;;;;;;;7.10;2.80;;;2.70;83.50;;;;;;5017363;28;20169;-77
2021/01/24 08:46:53;;;;;;;4.88;2.30;;;2.60;81.70;;;;;;5017262;28;20531;-77
2021/01/24 08:49:28;;;;;;;8.70;2.47;;;2.70;83.10;;;;;;5023474;28;20186;-80
2021/01/24 08:52:04;;;;;;;5.07;2.78;;;2.70;82.40;;;;;;5025275;28;20227;-80
2021/01/24 08:54:29;;;;;;;2.08;1.77;;;2.80;82.40;;;;;;5024689;28;20210;-81
2021/01/24 08:57:18;;;;;;;5.90;2.87;;;2.90;83.40;;;;;;5025046;28;20170;-79
2021/01/24 08:59:50;;;;;;;5.65;2.05;;;3.00;82.10;;;;;;5025606;28;20196;-80
2021/01/24 09:02:35;;;;;;;5.05;2.40;;;3.10;79.80;;;;;;5025528;28;20194;-80
2021/01/24 09:05:03;;;;;;;9.25;2.60;;;3.20;81.60;;;;;;5025541;28;20192;-80
2021/01/24 09:07:46;;;;;;;2.65;2.15;;;3.20;80.80;;;;;;5025509;28;20218;-80
2021/01/24 09:10:31;;;;;;;5.57;2.25;;;3.20;81.60;;;;;;5023928;28;20178;-80
2021/01/24 09:13:01;;;;;;;2.47;1.98;;;3.30;81.00;;;;;;5024594;28;20178;-80
2021/01/24 09:15:30;;;;;;;4.75;2.40;;;3.30;81.60;;;;;;5023855;28;20642;-80
2021/01/24 09:17:57;;;;;;;2.35;2.05;;;3.30;82.80;;;;;;5022788;28;20276;-84
2021/01/24 09:20:25;;;;;;;3.60;2.17;;;3.40;83.50;;;;;;5020960;28;20178;-83
2021/01/24 09:22:51;;;;;;;5.32;2.22;;;3.30;81.40;;;;;;5020396;28;20199;-83
2021/01/24 09:25:17;;;;;;;5.20;2.50;;;3.30;81.90;;;;;;5020649;28;20194;-83
2021/01/24 09:27:43;;;;;;;4.72;2.20;;;3.40;83.30;;;;;;5021165;28;20201;-83
2021/01/24 09:30:14;;;;;;;6.80;4.40;;;3.40;83.00;;;;;;5020523;28;20174;-83
2021/01/24 09:32:41;;;;;;;5.40;2.50;;;3.30;81.90;;;;;;5020911;28;20419;-83
2021/01/24 09:35:08;;;;;;;6.85;2.83;;;3.30;84.20;;;;;;5038359;28;20181;-83
2021/01/24 09:37:34;;;;;;;5.53;3.42;;;3.40;85.30;;;;;;5020062;28;20799;-83
2021/01/24 09:40:00;;;;;;;4.78;2.30;;;3.50;86.70;;;;;;5020407;28;20691;-84
2021/01/24 09:42:26;;;;;;;4.35;2.65;;;3.40;86.40;;;;;;5019998;28;20205;-83
2021/01/24 09:44:52;;;;;;;5.40;3.23;;;3.40;86.70;;;;;;5020793;28;20539;-83
2021/01/24 09:47:18;;;;;;;4.20;2.90;;;3.40;88.00;;;;;;5020461;28;20416;-83
2021/01/24 09:49:43;;;;;;;16.30;3.30;;;3.40;87.60;;;;;;5021448;28;20260;-83
2021/01/24 09:52:09;;;;;;;6.80;2.30;;;3.40;89.40;;;;;;5020873;28;20421;-83
2021/01/24 09:54:35;;;;;;;7.78;3.30;;;3.40;89.90;;;;;;5020236;28;20416;-80
2021/01/24 09:57:01;;;;;;;3.70;3.00;;;3.40;89.90;;;;;;5020636;28;20221;-80
2021/01/24 09:59:27;;;;;;;4.23;3.20;;;3.50;90.60;;;;;;5033762;23;20222;-87
2021/01/24 10:01:52;;;;;;;4.27;2.80;;;3.40;90.30;;;;;;5020127;28;20467;-86
2021/01/24 10:04:18;;;;;;;6.27;3.30;;;3.50;89.90;;;;;;5020468;28;20416;-86
2021/01/24 10:06:44;;;;;;;6.43;3.87;;;3.40;90.40;;;;;;5019833;28;20223;-86
2021/01/24 10:09:10;;;;;;;11.20;3.47;;;3.50;91.00;;;;;;5019659;28;20444;-86
2021/01/24 10:11:35;;;;;;;5.50;2.73;;;3.60;90.70;;;;;;5020667;28;20415;-86
2021/01/24 10:14:02;;;;;;;5.40;2.97;;;3.70;89.10;;;;;;5019754;28;20223;-86
2021/01/24 10:16:29;;;;;;;9.05;3.67;;;3.70;89.60;;;;;;5020138;28;20428;-87
2021/01/24 10:18:56;;;;;;;5.70;3.90;;;3.80;88.30;;;;;;5020027;28;20619;-87
2021/01/24 10:21:22;;;;;;;6.50;3.15;;;3.80;87.80;;;;;;5020775;28;20193;-86
2021/01/24 10:23:47;;;;;;;6.90;3.37;;;3.70;87.80;;;;;;5021714;28;20185;-86
2021/01/24 10:26:14;;;;;;;12.63;4.40;;;3.60;87.60;;;;;;5021351;28;20456;-86
2021/01/24 10:28:40;;;;;;;5.28;3.00;;;3.50;88.10;;;;;;5020260;28;20190;-86
2021/01/24 10:31:06;;;;;;;5.60;2.13;;;3.60;89.10;;;;;;5020917;28;20831;-86
2021/01/24 10:33:32;;;;;;;3.60;2.40;;;3.50;87.80;;;;;;5021812;28;20474;-87
2021/01/24 10:35:57;;;;;;;8.83;3.60;;;3.60;88.30;;;;;;5017285;28;20778;-87
2021/01/24 10:38:23;;;;;;;9.33;2.40;;;3.60;88.40;;;;;;5017005;28;20527;-87
2021/01/24 10:40:49;;;;;;;7.90;3.95;;;3.60;85.90;;;;;;5018191;28;20232;-87
2021/01/24 10:43:15;;;;;;;12.25;4.93;;;3.60;84.80;;;;;;5024186;28;20408;-86
2021/01/24 10:45:42;;;;;;;2.93;2.67;;;3.70;86.00;;;;;;5023178;28;20521;-86
2021/01/24 10:48:08;;;;;;;2.33;1.83;;;3.70;85.30;;;;;;5021701;28;20834;-86
2021/01/24 10:50:46;;;;;;;4.25;2.42;;;3.80;83.30;;;;;;5021338;28;20170;-86
2021/01/24 10:53:12;;;;;;;3.00;1.73;;;4.00;82.10;;;;;;5019552;28;20618;-86
2021/01/24 10:55:38;;;;;;;3.37;2.60;;;4.10;80.30;;;;;;5021192;28;20200;-87
2021/01/24 10:58:03;;;;;;;4.00;2.13;;;4.10;77.80;;;;;;5021478;28;20506;-86
2021/01/24 11:00:30;;;;;;;4.37;2.07;;;4.20;76.30;;;;;;5021650;28;20193;-87
2021/01/24 11:02:57;;;;;;;3.97;2.20;;;4.20;77.00;;;;;;5021165;28;21038;-87
2021/01/24 11:05:23;;;;;;;3.22;1.67;;;4.30;75.80;;;;;;5020552;28;20169;-86
2021/01/24 11:07:48;;;;;;;3.10;1.50;;;4.30;73.00;;;;;;5020076;28;20196;-86
2021/01/24 11:10:14;;;;;;;3.87;1.70;;;4.50;72.70;;;;;;5020524;28;20416;-86
2021/01/24 11:12:40;;;;;;;4.57;1.87;;;4.50;73.50;;;;;;5020916;28;20425;-87
2021/01/24 11:15:07;;;;;;;3.17;1.47;;;4.60;74.40;;;;;;5018797;28;20502;-87
2021/01/24 11:17:33;;;;;;;3.28;1.90;;;4.60;71.20;;;;;;4999791;28;20480;-87
2021/01/24 11:19:59;;;;;;;2.00;1.30;;;4.70;72.30;;;;;;5016191;28;20704;-87
2021/01/24 11:22:25;;;;;;;2.17;1.80;;;4.80;70.60;;;;;;5016213;28;20452;-87
2021/01/24 11:24:51;;;;;;;5.37;1.37;;;4.70;69.90;;;;;;5016055;28;20626;-87
2021/01/24 11:27:16;;;;;;;4.50;1.73;;;4.70;69.40;;;;;;5016306;28;20404;-88
2021/01/24 11:29:43;;;;;;;5.10;1.70;;;4.60;70.50;;;;;;5015845;28;20404;-87
2021/01/24 11:32:10;;;;;;;2.30;1.48;;;4.60;69.50;;;;;;5017776;28;20417;-85
2021/01/24 11:34:40;;;;;;;2.80;1.80;;;4.60;70.20;;;;;;5024242;28;20585;-86
2021/01/24 11:37:07;;;;;;;5.43;2.22;;;4.60;71.40;;;;;;5020789;28;20185;-85
2021/01/24 11:39:34;;;;;;;2.08;1.45;;;4.60;70.90;;;;;;5021794;28;20178;-85
2021/01/24 11:42:00;;;;;;;3.30;1.75;;;4.50;70.20;;;;;;5016408;28;20266;-87
2021/01/24 11:44:31;;;;;;;2.97;1.80;;;4.60;71.90;;;;;;5016448;28;20166;-86
2021/01/24 11:46:57;;;;;;;3.90;1.67;;;4.60;71.70;;;;;;5017496;28;20413;-86
2021/01/24 11:49:23;;;;;;;4.73;1.40;;;4.60;69.40;;;;;;5016371;28;20325;-86
2021/01/24 11:51:49;;;;;;;4.83;4.30;;;4.50;71.30;;;;;;5035105;28;20400;-86
2021/01/24 11:54:15;;;;;;;5.70;1.87;;;4.40;69.90;;;;;;5016858;28;20424;-86
2021/01/24 11:56:41;;;;;;;6.47;3.50;;;4.40;70.60;;;;;;5018170;28;20512;-85
2021/01/24 11:59:07;;;;;;;3.47;2.08;;;4.40;72.40;;;;;;5021844;28;21001;-85
2021/01/24 12:01:33;;;;;;;5.78;1.95;;;4.40;70.20;;;;;;5024606;28;20292;-86
2021/01/24 12:04:01;;;;;;;5.70;1.63;;;4.50;73.00;;;;;;5023960;28;20209;-86
2021/01/24 12:06:26;;;;;;;10.85;3.20;;;4.50;70.20;;;;;;5024063;28;20511;-86
2021/01/24 12:08:52;;;;;;;2.90;1.90;;;4.60;70.90;;;;;;5024406;28;20217;-86
2021/01/24 12:11:18;;;;;;;4.33;1.90;;;4.60;70.50;;;;;;5025843;28;20428;-86
2021/01/24 12:13:44;;;;;;;10.10;3.30;;;4.70;70.50;;;;;;5029205;28;20184;-86
2021/01/24 12:16:09;;;;;;;9.50;2.53;;;4.70;69.80;;;;;;5044564;28;20922;-86
2021/01/24 12:18:35;;;;;;;6.30;1.60;;;4.70;69.60;;;;;;5026290;28;20440;-86
2021/01/24 12:21:01;;;;;;;12.00;3.87;;;4.60;70.20;;;;;;5027024;28;20178;-86
2021/01/24 12:23:27;;;;;;;10.13;4.60;;;4.50;70.30;;;;;;5027414;28;20501;-86
2021/01/24 12:25:52;;;;;;;5.20;2.60;;;4.50;69.10;;;;;;5028065;28;20401;-85
2021/01/24 12:28:18;;;;;;;6.07;2.70;;;4.50;69.90;;;;;;5024959;28;20428;-86
2021/01/24 12:30:44;;;;;;;10.80;2.63;;;4.50;70.30;;;;;;5021141;28;20458;-86
2021/01/24 12:33:11;;;;;;;4.13;2.30;;;4.40;69.80;;;;;;5025493;28;20174;-85
2021/01/24 12:35:41;;;;;;;4.20;2.33;;;4.40;70.80;;;;;;5021875;28;20279;-86
2021/01/24 12:38:07;;;;;;;2.70;1.80;;;4.40;70.50;;;;;;5022153;28;20221;-85
2021/01/24 12:40:34;;;;;;;13.95;5.57;;;4.40;71.00;;;;;;5021251;28;20606;-86
2021/01/24 12:42:59;;;;;;;12.60;4.40;;;4.40;71.30;;;;;;5020119;28;20197;-86
2021/01/24 12:45:25;;;;;;;11.77;4.90;;;4.40;70.80;;;;;;5020852;28;20178;-86
2021/01/24 12:47:51;;;;;;;6.68;2.22;;;4.50;71.00;;;;;;5020342;28;20288;-86
2021/01/24 12:50:18;;;;;;;3.30;1.80;;;4.60;70.90;;;;;;5021793;28;20197;-85
2021/01/24 12:52:45;;;;;;;12.55;5.28;;;4.60;70.80;;;;;;5020957;28;20419;-86
2021/01/24 12:55:11;;;;;;;5.20;1.90;;;4.50;69.40;;;;;;5021726;28;20193;-86
2021/01/24 12:57:37;;;;;;;5.88;2.53;;;4.50;69.20;;;;;;5039349;28;20220;-86
2021/01/24 13:00:05;;;;;;;6.10;2.60;;;4.50;69.80;;;;;;5020849;28;20201;-84
2021/01/24 13:02:30;;;;;;;3.75;2.40;;;4.40;70.50;;;;;;5020706;28;20209;-86